sensor_id;sensor_type;location;lat;lon;timestamp;P1;durP1;ratioP1;P2;durP2;ratioP2
25349;SDS011;13302;48.796;11.978;2023-04-03T00:00:46;1.63;;;1.53;;
25349;SDS011;13302;48.796;11.978;2023-04-03T00:03:33;1.23;;;1.23;;
25349;SDS011;13302;48.796;11.978;2023-04-03T00:06:22;1.30;;;1.30;;
25349;SDS011;13302;48.796;11.978;2023-04-03T00:09:09;1.50;;;1.50;;
25349;SDS011;13302;48.796;11.978;2023-04-03T00:11:56;1.53;;;1.43;;
25349;SDS011;13302;48.796;11.978;2023-04-03T00:14:43;1.30;;;1.30;;
25349;SDS011;13302;48.796;11.978;2023-04-03T00:17:30;1.20;;;1.20;;
25349;SDS011;13302;48.796;11.978;2023-04-03T00:20:18;2.93;;;1.50;;
25349;SDS011;13302;48.796;11.978;2023-04-03T00:23:05;1.67;;;1.60;;
25349;SDS011;13302;48.796;11.978;2023-04-03T00:25:52;1.60;;;1.50;;
25349;SDS011;13302;48.796;11.978;2023-04-03T00:28:39;1.60;;;1.50;;
25349;SDS011;13302;48.796;11.978;2023-04-03T00:31:26;1.40;;;1.40;;
25349;SDS011;13302;48.796;11.978;2023-04-03T00:34:13;1.83;;;1.73;;
25349;SDS011;13302;48.796;11.978;2023-04-03T00:37:00;1.90;;;1.73;;
25349;SDS011;13302;48.796;11.978;2023-04-03T00:39:47;1.50;;;1.40;;
25349;SDS011;13302;48.796;11.978;2023-04-03T00:42:35;1.43;;;1.43;;
25349;SDS011;13302;48.796;11.978;2023-04-03T00:45:57;1.40;;;1.40;;
25349;SDS011;13302;48.796;11.978;2023-04-03T00:48:42;1.27;;;1.27;;
25349;SDS011;13302;48.796;11.978;2023-04-03T00:51:31;1.50;;;1.50;;
25349;SDS011;13302;48.796;11.978;2023-04-03T00:54:18;1.67;;;1.57;;
25349;SDS011;13302;48.796;11.978;2023-04-03T00:57:06;2.20;;;1.77;;
25349;SDS011;13302;48.796;11.978;2023-04-03T00:59:56;1.47;;;1.33;;
25349;SDS011;13302;48.796;11.978;2023-04-03T01:02:47;1.60;;;1.60;;
25349;SDS011;13302;48.796;11.978;2023-04-03T01:05:35;1.57;;;1.50;;
25349;SDS011;13302;48.796;11.978;2023-04-03T01:08:22;1.80;;;1.70;;
25349;SDS011;13302;48.796;11.978;2023-04-03T01:11:09;1.90;;;1.77;;
25349;SDS011;13302;48.796;11.978;2023-04-03T01:13:56;1.60;;;1.60;;
25349;SDS011;13302;48.796;11.978;2023-04-03T01:16:54;1.63;;;1.60;;
25349;SDS011;13302;48.796;11.978;2023-04-03T01:19:41;1.57;;;1.57;;
25349;SDS011;13302;48.796;11.978;2023-04-03T01:22:44;1.70;;;1.60;;
25349;SDS011;13302;48.796;11.978;2023-04-03T01:25:54;1.80;;;1.70;;
25349;SDS011;13302;48.796;11.978;2023-04-03T01:28:43;1.67;;;1.57;;
25349;SDS011;13302;48.796;11.978;2023-04-03T01:31:46;1.97;;;1.87;;
25349;SDS011;13302;48.796;11.978;2023-04-03T01:34:35;2.13;;;1.70;;
25349;SDS011;13302;48.796;11.978;2023-04-03T01:37:22;1.70;;;1.60;;
25349;SDS011;13302;48.796;11.978;2023-04-03T01:40:09;1.60;;;1.50;;
25349;SDS011;13302;48.796;11.978;2023-04-03T01:42:57;2.53;;;1.63;;
25349;SDS011;13302;48.796;11.978;2023-04-03T01:45:45;1.93;;;1.60;;
25349;SDS011;13302;48.796;11.978;2023-04-03T01:48:33;1.40;;;1.37;;
25349;SDS011;13302;48.796;11.978;2023-04-03T01:51:20;1.63;;;1.53;;
25349;SDS011;13302;48.796;11.978;2023-04-03T01:54:07;1.83;;;1.70;;
25349;SDS011;13302;48.796;11.978;2023-04-03T01:56:54;2.93;;;1.50;;
25349;SDS011;13302;48.796;11.978;2023-04-03T01:59:41;1.53;;;1.50;;
25349;SDS011;13302;48.796;11.978;2023-04-03T02:02:29;1.40;;;1.40;;
25349;SDS011;13302;48.796;11.978;2023-04-03T02:05:16;1.53;;;1.43;;
25349;SDS011;13302;48.796;11.978;2023-04-03T02:08:03;1.57;;;1.53;;
25349;SDS011;13302;48.796;11.978;2023-04-03T02:10:50;1.87;;;1.77;;
25349;SDS011;13302;48.796;11.978;2023-04-03T02:13:38;2.00;;;1.90;;
25349;SDS011;13302;48.796;11.978;2023-04-03T02:16:25;1.87;;;1.77;;
25349;SDS011;13302;48.796;11.978;2023-04-03T02:19:12;1.70;;;1.60;;
25349;SDS011;13302;48.796;11.978;2023-04-03T02:21:59;1.80;;;1.70;;
25349;SDS011;13302;48.796;11.978;2023-04-03T02:24:46;2.47;;;1.80;;
25349;SDS011;13302;48.796;11.978;2023-04-03T02:27:33;2.73;;;1.70;;
25349;SDS011;13302;48.796;11.978;2023-04-03T02:30:21;1.90;;;1.80;;
25349;SDS011;13302;48.796;11.978;2023-04-03T02:33:08;2.13;;;1.90;;
25349;SDS011;13302;48.796;11.978;2023-04-03T02:35:57;1.73;;;1.60;;
25349;SDS011;13302;48.796;11.978;2023-04-03T02:38:45;1.60;;;1.60;;
25349;SDS011;13302;48.796;11.978;2023-04-03T02:41:32;1.40;;;1.40;;
25349;SDS011;13302;48.796;11.978;2023-04-03T02:44:27;1.77;;;1.70;;
25349;SDS011;13302;48.796;11.978;2023-04-03T02:47:14;1.50;;;1.50;;
25349;SDS011;13302;48.796;11.978;2023-04-03T02:50:01;1.93;;;1.90;;
25349;SDS011;13302;48.796;11.978;2023-04-03T02:52:48;1.90;;;1.80;;
25349;SDS011;13302;48.796;11.978;2023-04-03T02:55:35;1.87;;;1.70;;
25349;SDS011;13302;48.796;11.978;2023-04-03T02:58:22;2.13;;;1.90;;
25349;SDS011;13302;48.796;11.978;2023-04-03T03:01:11;2.40;;;1.90;;
25349;SDS011;13302;48.796;11.978;2023-04-03T03:04:00;1.90;;;1.80;;
25349;SDS011;13302;48.796;11.978;2023-04-03T03:06:47;1.70;;;1.60;;
25349;SDS011;13302;48.796;11.978;2023-04-03T03:09:34;1.70;;;1.53;;
25349;SDS011;13302;48.796;11.978;2023-04-03T03:12:21;2.40;;;1.93;;
25349;SDS011;13302;48.796;11.978;2023-04-03T03:15:10;1.70;;;1.67;;
25349;SDS011;13302;48.796;11.978;2023-04-03T03:17:57;2.17;;;1.97;;
25349;SDS011;13302;48.796;11.978;2023-04-03T03:20:45;2.93;;;2.10;;
25349;SDS011;13302;48.796;11.978;2023-04-03T03:23:32;2.00;;;1.90;;
25349;SDS011;13302;48.796;11.978;2023-04-03T03:26:20;1.97;;;1.87;;
25349;SDS011;13302;48.796;11.978;2023-04-03T03:29:07;2.00;;;1.90;;
25349;SDS011;13302;48.796;11.978;2023-04-03T03:31:54;2.93;;;1.97;;
25349;SDS011;13302;48.796;11.978;2023-04-03T03:34:41;2.37;;;2.27;;
25349;SDS011;13302;48.796;11.978;2023-04-03T03:37:28;2.07;;;1.97;;
25349;SDS011;13302;48.796;11.978;2023-04-03T03:40:16;2.20;;;2.00;;
25349;SDS011;13302;48.796;11.978;2023-04-03T03:43:04;1.47;;;1.47;;
25349;SDS011;13302;48.796;11.978;2023-04-03T03:45:51;2.30;;;1.93;;
25349;SDS011;13302;48.796;11.978;2023-04-03T03:48:39;1.90;;;1.80;;
25349;SDS011;13302;48.796;11.978;2023-04-03T03:51:26;3.37;;;2.00;;
25349;SDS011;13302;48.796;11.978;2023-04-03T03:54:14;1.60;;;1.60;;
25349;SDS011;13302;48.796;11.978;2023-04-03T03:57:01;2.23;;;2.10;;
25349;SDS011;13302;48.796;11.978;2023-04-03T03:59:50;2.30;;;1.90;;
25349;SDS011;13302;48.796;11.978;2023-04-03T04:02:38;1.90;;;1.80;;
25349;SDS011;13302;48.796;11.978;2023-04-03T04:05:26;2.30;;;1.73;;
25349;SDS011;13302;48.796;11.978;2023-04-03T04:08:14;2.13;;;2.03;;
25349;SDS011;13302;48.796;11.978;2023-04-03T04:11:02;2.17;;;2.00;;
25349;SDS011;13302;48.796;11.978;2023-04-03T04:13:49;3.00;;;1.90;;
25349;SDS011;13302;48.796;11.978;2023-04-03T04:16:38;2.17;;;2.07;;
25349;SDS011;13302;48.796;11.978;2023-04-03T04:19:31;1.87;;;1.77;;
25349;SDS011;13302;48.796;11.978;2023-04-03T04:22:19;1.90;;;1.80;;
25349;SDS011;13302;48.796;11.978;2023-04-03T04:25:07;2.10;;;2.00;;
25349;SDS011;13302;48.796;11.978;2023-04-03T04:27:55;2.63;;;2.43;;
25349;SDS011;13302;48.796;11.978;2023-04-03T04:30:43;2.13;;;1.73;;
25349;SDS011;13302;48.796;11.978;2023-04-03T04:33:30;1.97;;;1.87;;
25349;SDS011;13302;48.796;11.978;2023-04-03T04:36:19;1.90;;;1.80;;
25349;SDS011;13302;48.796;11.978;2023-04-03T04:39:08;1.97;;;1.77;;
25349;SDS011;13302;48.796;11.978;2023-04-03T04:41:55;1.90;;;1.80;;
25349;SDS011;13302;48.796;11.978;2023-04-03T04:44:44;2.13;;;2.03;;
25349;SDS011;13302;48.796;11.978;2023-04-03T04:47:33;2.13;;;2.03;;
25349;SDS011;13302;48.796;11.978;2023-04-03T04:50:20;1.97;;;1.77;;
25349;SDS011;13302;48.796;11.978;2023-04-03T04:53:09;1.83;;;1.73;;
25349;SDS011;13302;48.796;11.978;2023-04-03T04:55:56;1.93;;;1.83;;
25349;SDS011;13302;48.796;11.978;2023-04-03T04:58:43;2.30;;;2.10;;
25349;SDS011;13302;48.796;11.978;2023-04-03T05:01:30;2.00;;;1.90;;
25349;SDS011;13302;48.796;11.978;2023-04-03T05:04:26;2.37;;;2.27;;
25349;SDS011;13302;48.796;11.978;2023-04-03T05:07:19;2.10;;;2.00;;
25349;SDS011;13302;48.796;11.978;2023-04-03T05:10:07;2.33;;;2.03;;
25349;SDS011;13302;48.796;11.978;2023-04-03T05:12:55;2.10;;;2.00;;
25349;SDS011;13302;48.796;11.978;2023-04-03T05:15:43;2.47;;;2.30;;
25349;SDS011;13302;48.796;11.978;2023-04-03T05:18:30;2.10;;;1.90;;
25349;SDS011;13302;48.796;11.978;2023-04-03T05:21:20;2.37;;;2.10;;
25349;SDS011;13302;48.796;11.978;2023-04-03T05:24:11;1.50;;;1.40;;
25349;SDS011;13302;48.796;11.978;2023-04-03T05:27:00;1.90;;;1.80;;
25349;SDS011;13302;48.796;11.978;2023-04-03T05:29:48;1.80;;;1.70;;
25349;SDS011;13302;48.796;11.978;2023-04-03T05:32:39;2.10;;;2.00;;
25349;SDS011;13302;48.796;11.978;2023-04-03T05:35:53;2.53;;;2.00;;
25349;SDS011;13302;48.796;11.978;2023-04-03T05:38:45;2.30;;;2.10;;
25349;SDS011;13302;48.796;11.978;2023-04-03T05:41:33;2.10;;;2.00;;
25349;SDS011;13302;48.796;11.978;2023-04-03T05:44:21;2.43;;;2.10;;
25349;SDS011;13302;48.796;11.978;2023-04-03T05:47:10;2.30;;;2.07;;
25349;SDS011;13302;48.796;11.978;2023-04-03T05:49:57;2.17;;;1.93;;
25349;SDS011;13302;48.796;11.978;2023-04-03T05:52:45;1.73;;;1.73;;
25349;SDS011;13302;48.796;11.978;2023-04-03T05:55:35;2.27;;;2.00;;
25349;SDS011;13302;48.796;11.978;2023-04-03T05:58:23;2.10;;;2.00;;
25349;SDS011;13302;48.796;11.978;2023-04-03T06:01:11;2.07;;;1.97;;
25349;SDS011;13302;48.796;11.978;2023-04-03T06:03:59;1.93;;;1.80;;
25349;SDS011;13302;48.796;11.978;2023-04-03T06:06:47;2.37;;;2.20;;
25349;SDS011;13302;48.796;11.978;2023-04-03T06:09:45;2.00;;;1.90;;
25349;SDS011;13302;48.796;11.978;2023-04-03T06:12:33;2.10;;;2.00;;
25349;SDS011;13302;48.796;11.978;2023-04-03T06:15:20;2.07;;;1.97;;
25349;SDS011;13302;48.796;11.978;2023-04-03T06:18:07;2.40;;;2.20;;
25349;SDS011;13302;48.796;11.978;2023-04-03T06:20:55;2.00;;;1.90;;
25349;SDS011;13302;48.796;11.978;2023-04-03T06:23:42;2.53;;;2.37;;
25349;SDS011;13302;48.796;11.978;2023-04-03T06:26:29;2.30;;;2.20;;
25349;SDS011;13302;48.796;11.978;2023-04-03T06:29:16;1.90;;;1.80;;
25349;SDS011;13302;48.796;11.978;2023-04-03T06:32:04;2.20;;;2.03;;
25349;SDS011;13302;48.796;11.978;2023-04-03T06:34:51;2.13;;;2.03;;
25349;SDS011;13302;48.796;11.978;2023-04-03T06:37:39;2.33;;;2.10;;
25349;SDS011;13302;48.796;11.978;2023-04-03T06:40:27;2.20;;;1.83;;
25349;SDS011;13302;48.796;11.978;2023-04-03T06:43:14;2.20;;;2.07;;
25349;SDS011;13302;48.796;11.978;2023-04-03T06:46:01;2.50;;;2.30;;
25349;SDS011;13302;48.796;11.978;2023-04-03T06:48:49;2.83;;;2.63;;
25349;SDS011;13302;48.796;11.978;2023-04-03T06:51:36;3.53;;;2.20;;
25349;SDS011;13302;48.796;11.978;2023-04-03T06:54:23;3.40;;;2.33;;
25349;SDS011;13302;48.796;11.978;2023-04-03T06:57:10;3.10;;;2.20;;
25349;SDS011;13302;48.796;11.978;2023-04-03T06:59:57;2.23;;;2.10;;
25349;SDS011;13302;48.796;11.978;2023-04-03T07:02:44;2.37;;;2.27;;
25349;SDS011;13302;48.796;11.978;2023-04-03T07:05:32;1.90;;;1.80;;
25349;SDS011;13302;48.796;11.978;2023-04-03T07:08:19;2.10;;;2.00;;
25349;SDS011;13302;48.796;11.978;2023-04-03T07:11:06;2.40;;;2.20;;
25349;SDS011;13302;48.796;11.978;2023-04-03T07:13:53;2.60;;;2.40;;
25349;SDS011;13302;48.796;11.978;2023-04-03T07:16:40;2.43;;;2.23;;
25349;SDS011;13302;48.796;11.978;2023-04-03T07:19:28;2.30;;;2.10;;
25349;SDS011;13302;48.796;11.978;2023-04-03T07:22:15;2.77;;;2.57;;
25349;SDS011;13302;48.796;11.978;2023-04-03T07:25:03;2.63;;;2.43;;
25349;SDS011;13302;48.796;11.978;2023-04-03T07:27:53;2.93;;;2.30;;
25349;SDS011;13302;48.796;11.978;2023-04-03T07:30:44;5.20;;;2.43;;
25349;SDS011;13302;48.796;11.978;2023-04-03T07:33:32;2.43;;;2.23;;
25349;SDS011;13302;48.796;11.978;2023-04-03T07:36:22;3.20;;;2.90;;
25349;SDS011;13302;48.796;11.978;2023-04-03T07:39:09;2.37;;;2.20;;
25349;SDS011;13302;48.796;11.978;2023-04-03T07:41:58;2.80;;;2.43;;
25349;SDS011;13302;48.796;11.978;2023-04-03T07:44:45;4.77;;;2.67;;
25349;SDS011;13302;48.796;11.978;2023-04-03T07:47:32;2.87;;;2.67;;
25349;SDS011;13302;48.796;11.978;2023-04-03T07:50:19;2.80;;;2.60;;
25349;SDS011;13302;48.796;11.978;2023-04-03T07:53:06;2.53;;;2.10;;
25349;SDS011;13302;48.796;11.978;2023-04-03T07:55:54;2.80;;;2.60;;
25349;SDS011;13302;48.796;11.978;2023-04-03T07:58:43;2.10;;;2.00;;
25349;SDS011;13302;48.796;11.978;2023-04-03T08:01:30;2.47;;;2.33;;
25349;SDS011;13302;48.796;11.978;2023-04-03T08:04:19;2.53;;;2.03;;
25349;SDS011;13302;48.796;11.978;2023-04-03T08:07:06;2.20;;;2.00;;
25349;SDS011;13302;48.796;11.978;2023-04-03T08:09:53;3.70;;;2.20;;
25349;SDS011;13302;48.796;11.978;2023-04-03T08:12:40;2.27;;;2.10;;
25349;SDS011;13302;48.796;11.978;2023-04-03T08:15:29;2.10;;;2.00;;
25349;SDS011;13302;48.796;11.978;2023-04-03T08:18:17;2.63;;;2.07;;
25349;SDS011;13302;48.796;11.978;2023-04-03T08:21:09;2.20;;;2.00;;
25349;SDS011;13302;48.796;11.978;2023-04-03T08:23:57;2.20;;;2.07;;
25349;SDS011;13302;48.796;11.978;2023-04-03T08:26:44;2.07;;;1.80;;
25349;SDS011;13302;48.796;11.978;2023-04-03T08:29:32;2.73;;;2.10;;
25349;SDS011;13302;48.796;11.978;2023-04-03T08:32:20;2.00;;;1.83;;
25349;SDS011;13302;48.796;11.978;2023-04-03T08:35:07;3.00;;;1.87;;
25349;SDS011;13302;48.796;11.978;2023-04-03T08:37:55;2.17;;;1.97;;
25349;SDS011;13302;48.796;11.978;2023-04-03T08:40:43;1.97;;;1.80;;
25349;SDS011;13302;48.796;11.978;2023-04-03T08:43:34;2.00;;;1.90;;
25349;SDS011;13302;48.796;11.978;2023-04-03T08:49:58;2.13;;;1.90;;
25349;SDS011;13302;48.796;11.978;2023-04-03T08:52:48;1.90;;;1.80;;
25349;SDS011;13302;48.796;11.978;2023-04-03T08:55:39;2.40;;;2.17;;
25349;SDS011;13302;48.796;11.978;2023-04-03T08:58:30;2.10;;;2.00;;
25349;SDS011;13302;48.796;11.978;2023-04-03T09:01:35;2.23;;;2.03;;
25349;SDS011;13302;48.796;11.978;2023-04-03T09:04:24;2.13;;;1.90;;
25349;SDS011;13302;48.796;11.978;2023-04-03T09:07:14;2.43;;;2.20;;
25349;SDS011;13302;48.796;11.978;2023-04-03T09:10:10;2.90;;;1.87;;
25349;SDS011;13302;48.796;11.978;2023-04-03T09:13:00;2.13;;;1.73;;
25349;SDS011;13302;48.796;11.978;2023-04-03T09:15:53;2.20;;;1.90;;
25349;SDS011;13302;48.796;11.978;2023-04-03T09:18:41;2.77;;;1.90;;
25349;SDS011;13302;48.796;11.978;2023-04-03T09:21:38;2.20;;;2.00;;
25349;SDS011;13302;48.796;11.978;2023-04-03T09:24:28;1.70;;;1.60;;
25349;SDS011;13302;48.796;11.978;2023-04-03T09:27:18;2.27;;;1.70;;
25349;SDS011;13302;48.796;11.978;2023-04-03T09:30:05;3.47;;;1.97;;
25349;SDS011;13302;48.796;11.978;2023-04-03T09:32:54;2.30;;;1.57;;
25349;SDS011;13302;48.796;11.978;2023-04-03T09:35:43;1.47;;;1.37;;
25349;SDS011;13302;48.796;11.978;2023-04-03T09:38:34;2.40;;;1.80;;
25349;SDS011;13302;48.796;11.978;2023-04-03T09:41:22;2.67;;;1.40;;
25349;SDS011;13302;48.796;11.978;2023-04-03T09:44:23;1.70;;;1.17;;
25349;SDS011;13302;48.796;11.978;2023-04-03T09:50:19;2.20;;;1.57;;
25349;SDS011;13302;48.796;11.978;2023-04-03T09:53:23;1.63;;;1.50;;
25349;SDS011;13302;48.796;11.978;2023-04-03T10:02:02;2.03;;;1.23;;
25349;SDS011;13302;48.796;11.978;2023-04-03T10:04:50;1.80;;;1.70;;
25349;SDS011;13302;48.796;11.978;2023-04-03T10:07:52;1.50;;;1.40;;
25349;SDS011;13302;48.796;11.978;2023-04-03T10:11:14;1.97;;;1.50;;
25349;SDS011;13302;48.796;11.978;2023-04-03T10:14:10;1.07;;;1.00;;
25349;SDS011;13302;48.796;11.978;2023-04-03T10:17:20;0.97;;;0.97;;
25349;SDS011;13302;48.796;11.978;2023-04-03T10:20:42;1.10;;;1.03;;
25349;SDS011;13302;48.796;11.978;2023-04-03T10:23:38;1.10;;;1.10;;
25349;SDS011;13302;48.796;11.978;2023-04-03T10:29:37;1.83;;;1.20;;
25349;SDS011;13302;48.796;11.978;2023-04-03T10:35:35;1.50;;;1.40;;
25349;SDS011;13302;48.796;11.978;2023-04-03T10:48:15;1.37;;;1.20;;
25349;SDS011;13302;48.796;11.978;2023-04-03T10:51:24;1.10;;;1.10;;
25349;SDS011;13302;48.796;11.978;2023-04-03T10:57:09;1.60;;;1.20;;
25349;SDS011;13302;48.796;11.978;2023-04-03T11:00:02;0.80;;;0.80;;
25349;SDS011;13302;48.796;11.978;2023-04-03T11:05:46;0.90;;;0.90;;
25349;SDS011;13302;48.796;11.978;2023-04-03T11:11:37;1.37;;;1.27;;
25349;SDS011;13302;48.796;11.978;2023-04-03T11:14:33;1.20;;;1.10;;
25349;SDS011;13302;48.796;11.978;2023-04-03T11:17:35;0.80;;;0.80;;
25349;SDS011;13302;48.796;11.978;2023-04-03T11:20:31;1.20;;;1.10;;
25349;SDS011;13302;48.796;11.978;2023-04-03T11:26:32;1.13;;;0.90;;
25349;SDS011;13302;48.796;11.978;2023-04-03T11:29:27;0.80;;;0.80;;
25349;SDS011;13302;48.796;11.978;2023-04-03T11:32:39;0.90;;;0.90;;
25349;SDS011;13302;48.796;11.978;2023-04-03T11:35:28;1.63;;;0.97;;
25349;SDS011;13302;48.796;11.978;2023-04-03T11:38:21;1.20;;;1.07;;
25349;SDS011;13302;48.796;11.978;2023-04-03T11:41:13;0.83;;;0.83;;
25349;SDS011;13302;48.796;11.978;2023-04-03T11:44:04;0.90;;;0.90;;
25349;SDS011;13302;48.796;11.978;2023-04-03T11:47:11;1.13;;;1.00;;
25349;SDS011;13302;48.796;11.978;2023-04-03T11:53:29;1.00;;;1.00;;
25349;SDS011;13302;48.796;11.978;2023-04-03T12:01:58;0.87;;;0.87;;
25349;SDS011;13302;48.796;11.978;2023-04-03T12:04:57;2.13;;;1.00;;
25349;SDS011;13302;48.796;11.978;2023-04-03T12:08:55;1.00;;;1.00;;
25349;SDS011;13302;48.796;11.978;2023-04-03T12:11:28;0.90;;;0.90;;
25349;SDS011;13302;48.796;11.978;2023-04-03T12:14:17;1.27;;;0.73;;
25349;SDS011;13302;48.796;11.978;2023-04-03T12:17:12;1.70;;;1.23;;
25349;SDS011;13302;48.796;11.978;2023-04-03T12:23:55;0.90;;;0.90;;
25349;SDS011;13302;48.796;11.978;2023-04-03T12:29:53;0.87;;;0.87;;
25349;SDS011;13302;48.796;11.978;2023-04-03T12:32:49;1.00;;;1.00;;
25349;SDS011;13302;48.796;11.978;2023-04-03T12:36:08;1.10;;;1.10;;
25349;SDS011;13302;48.796;11.978;2023-04-03T12:39:16;1.27;;;1.20;;
25349;SDS011;13302;48.796;11.978;2023-04-03T12:45:27;1.00;;;1.00;;
25349;SDS011;13302;48.796;11.978;2023-04-03T12:48:17;1.33;;;1.00;;
25349;SDS011;13302;48.796;11.978;2023-04-03T12:51:08;1.10;;;1.10;;
25349;SDS011;13302;48.796;11.978;2023-04-03T12:53:57;1.60;;;1.33;;
25349;SDS011;13302;48.796;11.978;2023-04-03T12:56:49;1.17;;;1.10;;
25349;SDS011;13302;48.796;11.978;2023-04-03T12:59:37;1.20;;;1.20;;
25349;SDS011;13302;48.796;11.978;2023-04-03T13:02:26;2.07;;;1.30;;
25349;SDS011;13302;48.796;11.978;2023-04-03T13:05:17;1.50;;;1.47;;
25349;SDS011;13302;48.796;11.978;2023-04-03T13:08:07;1.50;;;1.40;;
25349;SDS011;13302;48.796;11.978;2023-04-03T13:10:59;1.27;;;1.27;;
25349;SDS011;13302;48.796;11.978;2023-04-03T13:13:54;1.03;;;1.03;;
25349;SDS011;13302;48.796;11.978;2023-04-03T13:16:53;1.60;;;1.30;;
25349;SDS011;13302;48.796;11.978;2023-04-03T13:19:41;1.20;;;1.10;;
25349;SDS011;13302;48.796;11.978;2023-04-03T13:22:32;2.40;;;1.40;;
25349;SDS011;13302;48.796;11.978;2023-04-03T13:25:26;2.10;;;1.20;;
25349;SDS011;13302;48.796;11.978;2023-04-03T13:28:20;1.60;;;1.50;;
25349;SDS011;13302;48.796;11.978;2023-04-03T13:37:00;1.53;;;1.10;;
25349;SDS011;13302;48.796;11.978;2023-04-03T13:39:56;1.10;;;1.00;;
25349;SDS011;13302;48.796;11.978;2023-04-03T13:43:20;1.67;;;1.57;;
25349;SDS011;13302;48.796;11.978;2023-04-03T13:48:57;1.70;;;1.60;;
25349;SDS011;13302;48.796;11.978;2023-04-03T13:51:44;1.20;;;1.20;;
25349;SDS011;13302;48.796;11.978;2023-04-03T13:54:36;1.43;;;1.30;;
25349;SDS011;13302;48.796;11.978;2023-04-03T13:57:25;1.20;;;1.10;;
25349;SDS011;13302;48.796;11.978;2023-04-03T14:00:21;1.50;;;1.40;;
25349;SDS011;13302;48.796;11.978;2023-04-03T14:03:21;1.37;;;1.27;;
25349;SDS011;13302;48.796;11.978;2023-04-03T14:06:12;2.53;;;2.33;;
25349;SDS011;13302;48.796;11.978;2023-04-03T14:09:01;2.10;;;1.70;;
25349;SDS011;13302;48.796;11.978;2023-04-03T14:11:48;3.13;;;1.50;;
25349;SDS011;13302;48.796;11.978;2023-04-03T14:14:39;1.70;;;1.40;;
25349;SDS011;13302;48.796;11.978;2023-04-03T14:17:26;1.70;;;1.40;;
25349;SDS011;13302;48.796;11.978;2023-04-03T14:20:20;1.73;;;1.47;;
25349;SDS011;13302;48.796;11.978;2023-04-03T14:23:08;1.67;;;1.50;;
25349;SDS011;13302;48.796;11.978;2023-04-03T14:25:59;1.60;;;1.47;;
25349;SDS011;13302;48.796;11.978;2023-04-03T14:28:47;1.53;;;1.20;;
25349;SDS011;13302;48.796;11.978;2023-04-03T14:31:36;1.30;;;1.30;;
25349;SDS011;13302;48.796;11.978;2023-04-03T14:34:23;4.23;;;1.13;;
25349;SDS011;13302;48.796;11.978;2023-04-03T14:37:14;1.10;;;1.10;;
25349;SDS011;13302;48.796;11.978;2023-04-03T14:40:08;1.90;;;1.80;;
25349;SDS011;13302;48.796;11.978;2023-04-03T14:42:58;1.70;;;1.67;;
25349;SDS011;13302;48.796;11.978;2023-04-03T14:45:46;1.40;;;1.40;;
25349;SDS011;13302;48.796;11.978;2023-04-03T14:48:34;1.63;;;1.53;;
25349;SDS011;13302;48.796;11.978;2023-04-03T14:51:21;1.10;;;1.10;;
25349;SDS011;13302;48.796;11.978;2023-04-03T14:54:15;1.30;;;1.30;;
25349;SDS011;13302;48.796;11.978;2023-04-03T14:57:08;1.57;;;1.20;;
25349;SDS011;13302;48.796;11.978;2023-04-03T14:59:59;2.17;;;1.17;;
25349;SDS011;13302;48.796;11.978;2023-04-03T15:02:48;2.60;;;2.03;;
25349;SDS011;13302;48.796;11.978;2023-04-03T15:05:36;2.13;;;1.93;;
25349;SDS011;13302;48.796;11.978;2023-04-03T15:08:24;3.27;;;2.30;;
25349;SDS011;13302;48.796;11.978;2023-04-03T15:11:14;2.40;;;2.20;;
25349;SDS011;13302;48.796;11.978;2023-04-03T15:14:01;1.70;;;1.60;;
25349;SDS011;13302;48.796;11.978;2023-04-03T15:16:48;1.83;;;1.70;;
25349;SDS011;13302;48.796;11.978;2023-04-03T15:19:36;1.40;;;1.30;;
25349;SDS011;13302;48.796;11.978;2023-04-03T15:22:24;1.73;;;1.30;;
25349;SDS011;13302;48.796;11.978;2023-04-03T15:25:11;1.63;;;1.53;;
25349;SDS011;13302;48.796;11.978;2023-04-03T15:27:59;1.80;;;1.70;;
25349;SDS011;13302;48.796;11.978;2023-04-03T15:30:46;1.60;;;1.50;;
25349;SDS011;13302;48.796;11.978;2023-04-03T15:33:34;1.70;;;1.40;;
25349;SDS011;13302;48.796;11.978;2023-04-03T15:36:22;2.13;;;1.93;;
25349;SDS011;13302;48.796;11.978;2023-04-03T15:39:15;4.47;;;2.03;;
25349;SDS011;13302;48.796;11.978;2023-04-03T15:42:03;1.50;;;1.37;;
25349;SDS011;13302;48.796;11.978;2023-04-03T15:44:53;1.40;;;1.40;;
25349;SDS011;13302;48.796;11.978;2023-04-03T15:47:40;1.70;;;1.60;;
25349;SDS011;13302;48.796;11.978;2023-04-03T15:50:28;1.43;;;1.30;;
25349;SDS011;13302;48.796;11.978;2023-04-03T15:53:15;1.57;;;1.47;;
25349;SDS011;13302;48.796;11.978;2023-04-03T15:56:02;1.53;;;1.43;;
25349;SDS011;13302;48.796;11.978;2023-04-03T15:58:51;1.47;;;1.23;;
25349;SDS011;13302;48.796;11.978;2023-04-03T16:01:38;1.17;;;1.07;;
25349;SDS011;13302;48.796;11.978;2023-04-03T16:04:25;1.63;;;1.33;;
25349;SDS011;13302;48.796;11.978;2023-04-03T16:07:13;1.27;;;1.27;;
25349;SDS011;13302;48.796;11.978;2023-04-03T16:10:00;2.00;;;1.90;;
25349;SDS011;13302;48.796;11.978;2023-04-03T16:12:47;1.60;;;1.60;;
25349;SDS011;13302;48.796;11.978;2023-04-03T16:15:34;1.60;;;1.50;;
25349;SDS011;13302;48.796;11.978;2023-04-03T16:18:21;1.47;;;1.37;;
25349;SDS011;13302;48.796;11.978;2023-04-03T16:21:09;1.77;;;1.67;;
25349;SDS011;13302;48.796;11.978;2023-04-03T16:23:59;2.87;;;1.30;;
25349;SDS011;13302;48.796;11.978;2023-04-03T16:26:47;1.13;;;1.13;;
25349;SDS011;13302;48.796;11.978;2023-04-03T16:29:34;1.27;;;1.27;;
25349;SDS011;13302;48.796;11.978;2023-04-03T16:32:21;1.27;;;1.07;;
25349;SDS011;13302;48.796;11.978;2023-04-03T16:35:09;1.13;;;1.13;;
25349;SDS011;13302;48.796;11.978;2023-04-03T16:37:57;1.33;;;1.17;;
25349;SDS011;13302;48.796;11.978;2023-04-03T16:40:45;1.40;;;1.30;;
25349;SDS011;13302;48.796;11.978;2023-04-03T16:43:32;1.60;;;1.60;;
25349;SDS011;13302;48.796;11.978;2023-04-03T16:46:20;1.43;;;1.33;;
25349;SDS011;13302;48.796;11.978;2023-04-03T16:49:07;1.30;;;1.20;;
25349;SDS011;13302;48.796;11.978;2023-04-03T16:51:54;2.90;;;1.37;;
25349;SDS011;13302;48.796;11.978;2023-04-03T16:54:41;1.40;;;1.30;;
25349;SDS011;13302;48.796;11.978;2023-04-03T16:57:28;1.73;;;1.63;;
25349;SDS011;13302;48.796;11.978;2023-04-03T17:00:15;2.20;;;2.00;;
25349;SDS011;13302;48.796;11.978;2023-04-03T17:03:03;1.70;;;1.60;;
25349;SDS011;13302;48.796;11.978;2023-04-03T17:05:50;2.00;;;1.47;;
25349;SDS011;13302;48.796;11.978;2023-04-03T17:08:37;1.37;;;1.37;;
25349;SDS011;13302;48.796;11.978;2023-04-03T17:11:24;2.00;;;1.90;;
25349;SDS011;13302;48.796;11.978;2023-04-03T17:14:12;1.70;;;1.60;;
25349;SDS011;13302;48.796;11.978;2023-04-03T17:16:59;2.53;;;1.70;;
25349;SDS011;13302;48.796;11.978;2023-04-03T17:19:46;1.33;;;1.33;;
25349;SDS011;13302;48.796;11.978;2023-04-03T17:22:33;1.87;;;1.60;;
25349;SDS011;13302;48.796;11.978;2023-04-03T17:25:21;2.10;;;1.30;;
25349;SDS011;13302;48.796;11.978;2023-04-03T17:28:08;3.23;;;1.63;;
25349;SDS011;13302;48.796;11.978;2023-04-03T17:30:55;3.20;;;1.70;;
25349;SDS011;13302;48.796;11.978;2023-04-03T17:33:46;1.53;;;1.37;;
25349;SDS011;13302;48.796;11.978;2023-04-03T17:36:33;2.93;;;1.53;;
25349;SDS011;13302;48.796;11.978;2023-04-03T17:39:20;1.60;;;1.50;;
25349;SDS011;13302;48.796;11.978;2023-04-03T17:42:08;1.33;;;1.20;;
25349;SDS011;13302;48.796;11.978;2023-04-03T17:44:55;1.30;;;1.30;;
25349;SDS011;13302;48.796;11.978;2023-04-03T17:47:42;1.40;;;1.30;;
25349;SDS011;13302;48.796;11.978;2023-04-03T17:50:29;1.63;;;1.53;;
25349;SDS011;13302;48.796;11.978;2023-04-03T17:53:16;2.87;;;1.73;;
25349;SDS011;13302;48.796;11.978;2023-04-03T17:56:07;2.40;;;2.20;;